ZPTHB SGAS-SAZM
Flight info
| Callsign | ZPTHB |
|---|---|
| Flight time | N/A |
| Altitude | 28000 |
| Route | SGAS DCT ANLAT DCT BIVIL DCT SAZM |
| Aircraft | C700/M-SDFHIRWXY/LB1 |
Departure
| Time | 2026-04-20 23:50 |
|---|---|
| Airport | Silvio Pettirossi International Airport (SGAS) |
Arrival
| Time | N/A |
|---|---|
| Airport | Ástor Piazzola International Airport (SAZM) |
| Time | Latitude | Longitude | Altitude | Speed | Heading |
|---|---|---|---|---|---|
| 2026-04-20 23:37 | -25.24409 | -57.51580 | 273 ft | 0 kts | 261° |
| 2026-04-20 23:45 | -25.24409 | -57.51581 | 273 ft | 0 kts | 267° |
| 2026-04-20 23:45 | -25.24407 | -57.51582 | 273 ft | 0 kts | 302° |
| 2026-04-20 23:46 | -25.24401 | -57.51586 | 273 ft | 3 kts | 328° |
| 2026-04-20 23:46 | -25.24357 | -57.51615 | 273 ft | 8 kts | 333° |
| 2026-04-20 23:46 | -25.24356 | -57.51691 | 273 ft | 16 kts | 237° |
| 2026-04-20 23:46 | -25.24436 | -57.51803 | 273 ft | 14 kts | 195° |
| 2026-04-20 23:47 | -25.24562 | -57.51833 | 273 ft | 23 kts | 192° |
| 2026-04-20 23:47 | -25.24755 | -57.51879 | 273 ft | 32 kts | 192° |
| 2026-04-20 23:47 | -25.25004 | -57.51940 | 273 ft | 40 kts | 192° |
| 2026-04-20 23:47 | -25.25281 | -57.52006 | 274 ft | 39 kts | 192° |
| 2026-04-20 23:48 | -25.25493 | -57.52083 | 275 ft | 18 kts | 254° |
| 2026-04-20 23:48 | -25.25467 | -57.52198 | 280 ft | 0 kts | 283° |
| 2026-04-20 23:49 | -25.25466 | -57.52204 | 280 ft | 3 kts | 283° |
| 2026-04-20 23:49 | -25.25435 | -57.52257 | 282 ft | 14 kts | 337° |
| 2026-04-20 23:49 | -25.25266 | -57.52223 | 280 ft | 46 kts | 12° |
| 2026-04-20 23:49 | -25.24700 | -57.52085 | 278 ft | 119 kts | 12° |
| 2026-04-20 23:50 | -25.23701 | -57.51842 | 410 ft | 172 kts | 13° |
| 2026-04-20 23:50 | -25.22363 | -57.51414 | 708 ft | 223 kts | 30° |
| 2026-04-20 23:50 | -25.21345 | -57.50004 | 1187 ft | 262 kts | 72° |
| 2026-04-20 23:50 | -25.21373 | -57.47864 | 1775 ft | 301 kts | 105° |
| 2026-04-20 23:51 | -25.22454 | -57.46029 | 2340 ft | 276 kts | 137° |
| 2026-04-20 23:51 | -25.24150 | -57.45252 | 2879 ft | 260 kts | 173° |
| 2026-04-20 23:51 | -25.25846 | -57.45712 | 3406 ft | 258 kts | 212° |
| 2026-04-20 23:51 | -25.27290 | -57.47042 | 3964 ft | 283 kts | 225° |
| 2026-04-20 23:52 | -25.28791 | -57.48578 | 4548 ft | 308 kts | 222° |
| 2026-04-20 23:52 | -25.30588 | -57.49977 | 5126 ft | 318 kts | 212° |
| 2026-04-20 23:52 | -25.32597 | -57.51055 | 5700 ft | 326 kts | 203° |
| 2026-04-20 23:52 | -25.34784 | -57.51791 | 6280 ft | 330 kts | 193° |
| 2026-04-20 23:53 | -25.37107 | -57.52007 | 6825 ft | 350 kts | 180° |
| 2026-04-20 23:53 | -25.39583 | -57.51842 | 7394 ft | 353 kts | 176° |
| 2026-04-20 23:53 | -25.42050 | -57.51682 | 7965 ft | 357 kts | 180° |
| 2026-04-20 23:53 | -25.44546 | -57.51719 | 8535 ft | 360 kts | 184° |
| 2026-04-20 23:54 | -25.47044 | -57.51810 | 9261 ft | 360 kts | 183° |
| 2026-04-20 23:54 | -25.49577 | -57.51807 | 9986 ft | 367 kts | 181° |
| 2026-04-20 23:54 | -25.52107 | -57.51780 | 10658 ft | 369 kts | 182° |
| 2026-04-20 23:54 | -25.54691 | -57.51797 | 11351 ft | 371 kts | 183° |
| 2026-04-20 23:55 | -25.57295 | -57.51822 | 12063 ft | 372 kts | 183° |
| 2026-04-20 23:55 | -25.59904 | -57.51829 | 12786 ft | 376 kts | 182° |
| 2026-04-20 23:55 | -25.62540 | -57.51835 | 13525 ft | 380 kts | 183° |
| 2026-04-20 23:55 | -25.65198 | -57.51846 | 14208 ft | 383 kts | 183° |
| 2026-04-20 23:56 | -25.67880 | -57.51858 | 14879 ft | 384 kts | 183° |
| 2026-04-20 23:56 | -25.70531 | -57.51868 | 15555 ft | 386 kts | 183° |
| 2026-04-20 23:56 | -25.73228 | -57.51879 | 16254 ft | 389 kts | 183° |
| 2026-04-20 23:56 | -25.75948 | -57.51889 | 16968 ft | 392 kts | 184° |
| 2026-04-20 23:57 | -25.78689 | -57.51901 | 17696 ft | 395 kts | 184° |
| 2026-04-20 23:57 | -25.81455 | -57.51911 | 18409 ft | 398 kts | 184° |
| 2026-04-20 23:57 | -25.84236 | -57.51923 | 19067 ft | 402 kts | 184° |
| 2026-04-20 23:57 | -25.87045 | -57.51934 | 19734 ft | 406 kts | 184° |
| 2026-04-20 23:58 | -25.89891 | -57.51945 | 20416 ft | 410 kts | 184° |
| 2026-04-20 23:58 | -25.92759 | -57.51956 | 21113 ft | 415 kts | 185° |
| 2026-04-20 23:58 | -25.95674 | -57.51969 | 21841 ft | 420 kts | 185° |
| 2026-04-20 23:58 | -25.98575 | -57.51980 | 22552 ft | 425 kts | 185° |
| 2026-04-20 23:59 | -26.01548 | -57.51992 | 23305 ft | 430 kts | 185° |
| 2026-04-20 23:59 | -26.04555 | -57.52004 | 23972 ft | 434 kts | 185° |
| 2026-04-20 23:59 | -26.07587 | -57.52015 | 24618 ft | 437 kts | 185° |
| 2026-04-20 23:59 | -26.10643 | -57.52027 | 25282 ft | 441 kts | 185° |
| 2026-04-21 00:00 | -26.13729 | -57.52040 | 25953 ft | 444 kts | 185° |
| 2026-04-21 00:00 | -26.16821 | -57.52051 | 26642 ft | 446 kts | 185° |
| 2026-04-21 00:00 | -26.19943 | -57.52064 | 27350 ft | 448 kts | 185° |
| 2026-04-21 00:00 | -26.23069 | -57.52076 | 27933 ft | 453 kts | 186° |
| 2026-04-21 00:01 | -26.26283 | -57.52096 | 27960 ft | 471 kts | 185° |
| 2026-04-21 00:01 | -26.29591 | -57.52109 | 27968 ft | 479 kts | 185° |
| 2026-04-21 00:01 | -26.32931 | -57.52113 | 27973 ft | 478 kts | 185° |
| 2026-04-21 00:01 | -26.36251 | -57.52123 | 27973 ft | 477 kts | 185° |
| 2026-04-21 00:02 | -26.39565 | -57.52142 | 27972 ft | 475 kts | 185° |
| 2026-04-21 00:02 | -26.42878 | -57.52157 | 27975 ft | 476 kts | 185° |
| 2026-04-21 00:02 | -26.46197 | -57.52169 | 27971 ft | 478 kts | 185° |
| 2026-04-21 00:02 | -26.49535 | -57.52181 | 27971 ft | 479 kts | 185° |
| 2026-04-21 00:03 | -26.52873 | -57.52194 | 27974 ft | 479 kts | 185° |
| 2026-04-21 00:03 | -26.56196 | -57.52208 | 27974 ft | 477 kts | 185° |
| 2026-04-21 00:03 | -26.59512 | -57.52220 | 27980 ft | 476 kts | 185° |
| 2026-04-21 00:03 | -26.62825 | -57.52234 | 27979 ft | 476 kts | 185° |
| 2026-04-21 00:04 | -26.66144 | -57.52249 | 27977 ft | 478 kts | 185° |
| 2026-04-21 00:04 | -26.69472 | -57.52262 | 27977 ft | 480 kts | 185° |
| 2026-04-21 00:04 | -26.72769 | -57.52275 | 27974 ft | 479 kts | 185° |
| 2026-04-21 00:04 | -26.76095 | -57.52286 | 27981 ft | 478 kts | 185° |
| 2026-04-21 00:05 | -26.79428 | -57.52301 | 27978 ft | 476 kts | 185° |
| 2026-04-21 00:05 | -26.82742 | -57.52314 | 27981 ft | 477 kts | 185° |
| 2026-04-21 00:05 | -26.86068 | -57.52329 | 27985 ft | 479 kts | 185° |
| 2026-04-21 00:05 | -26.89405 | -57.52343 | 27989 ft | 481 kts | 185° |
| 2026-04-21 00:06 | -26.92756 | -57.52354 | 27983 ft | 480 kts | 185° |
| 2026-04-21 00:06 | -26.96089 | -57.52367 | 27985 ft | 478 kts | 185° |
| 2026-04-21 00:06 | -26.99385 | -57.52380 | 27985 ft | 477 kts | 185° |
| 2026-04-21 00:06 | -27.02747 | -57.52396 | 27985 ft | 478 kts | 185° |
| 2026-04-21 00:07 | -27.06050 | -57.52409 | 27993 ft | 480 kts | 185° |
| 2026-04-21 00:07 | -27.09403 | -57.52423 | 27990 ft | 482 kts | 185° |
| 2026-04-21 00:07 | -27.12758 | -57.52435 | 27988 ft | 482 kts | 185° |
| 2026-04-21 00:07 | -27.16108 | -57.52448 | 27990 ft | 480 kts | 185° |
| 2026-04-21 00:08 | -27.19438 | -57.52461 | 27990 ft | 479 kts | 185° |
| 2026-04-21 00:08 | -27.22771 | -57.52476 | 27991 ft | 479 kts | 185° |
| 2026-04-21 00:08 | -27.26110 | -57.52490 | 27992 ft | 481 kts | 185° |
| 2026-04-21 00:08 | -27.29459 | -57.52503 | 27994 ft | 482 kts | 185° |
| 2026-04-21 00:09 | -27.32816 | -57.52517 | 27992 ft | 483 kts | 185° |
| 2026-04-21 00:09 | -27.36182 | -57.52530 | 27994 ft | 482 kts | 185° |
| 2026-04-21 00:09 | -27.39533 | -57.52543 | 27992 ft | 481 kts | 185° |
| 2026-04-21 00:09 | -27.42883 | -57.52557 | 27995 ft | 480 kts | 185° |
| 2026-04-21 00:10 | -27.46231 | -57.52571 | 27995 ft | 481 kts | 185° |
| 2026-04-21 00:10 | -27.49585 | -57.52586 | 27994 ft | 483 kts | 185° |
| 2026-04-21 00:10 | -27.52913 | -57.52599 | 27996 ft | 484 kts | 185° |
| 2026-04-21 00:10 | -27.56288 | -57.52612 | 27994 ft | 485 kts | 185° |
| 2026-04-21 00:11 | -27.59673 | -57.52626 | 27994 ft | 486 kts | 185° |
| 2026-04-21 00:11 | -27.63061 | -57.52640 | 27993 ft | 487 kts | 185° |
| 2026-04-21 00:11 | -27.66445 | -57.52653 | 27989 ft | 486 kts | 185° |
| 2026-04-21 00:11 | -27.69825 | -57.52666 | 27995 ft | 485 kts | 185° |
| 2026-04-21 00:12 | -27.73214 | -57.52681 | 27990 ft | 485 kts | 185° |
| 2026-04-21 00:12 | -27.76585 | -57.52695 | 27988 ft | 485 kts | 185° |
| 2026-04-21 00:12 | -27.79973 | -57.52710 | 27990 ft | 487 kts | 185° |
| 2026-04-21 00:12 | -27.83364 | -57.52723 | 27987 ft | 488 kts | 185° |
| 2026-04-21 00:13 | -27.86764 | -57.52736 | 27988 ft | 490 kts | 185° |
| 2026-04-21 00:13 | -27.90173 | -57.52750 | 27989 ft | 489 kts | 185° |
| 2026-04-21 00:13 | -27.93530 | -57.52763 | 27990 ft | 488 kts | 185° |
| 2026-04-21 00:13 | -27.96924 | -57.52778 | 27991 ft | 486 kts | 185° |
| 2026-04-21 00:14 | -28.00316 | -57.52792 | 27994 ft | 488 kts | 185° |
| 2026-04-21 00:14 | -28.03715 | -57.52807 | 27991 ft | 489 kts | 185° |
| 2026-04-21 00:14 | -28.07134 | -57.52821 | 27989 ft | 491 kts | 185° |
| 2026-04-21 00:14 | -28.10539 | -57.52833 | 27989 ft | 489 kts | 185° |
| 2026-04-21 00:15 | -28.13945 | -57.52847 | 27989 ft | 488 kts | 185° |
| 2026-04-21 00:15 | -28.17327 | -57.52862 | 27987 ft | 486 kts | 185° |
| 2026-04-21 00:15 | -28.20721 | -57.52877 | 27987 ft | 487 kts | 185° |
| 2026-04-21 00:15 | -28.24124 | -57.52891 | 27988 ft | 489 kts | 185° |
| 2026-04-21 00:16 | -28.27534 | -57.52905 | 27988 ft | 491 kts | 185° |
| 2026-04-21 00:16 | -28.30947 | -57.52918 | 27985 ft | 490 kts | 185° |
| 2026-04-21 00:16 | -28.34346 | -57.52931 | 27987 ft | 488 kts | 185° |
| 2026-04-21 00:16 | -28.37745 | -57.52946 | 27991 ft | 488 kts | 185° |
| 2026-04-21 00:17 | -28.41107 | -57.52962 | 27987 ft | 489 kts | 185° |
| 2026-04-21 00:17 | -28.44567 | -57.52976 | 27989 ft | 491 kts | 185° |
| 2026-04-21 00:17 | -28.47935 | -57.52988 | 27990 ft | 491 kts | 185° |
| 2026-04-21 00:17 | -28.51352 | -57.53002 | 27987 ft | 490 kts | 185° |
| 2026-04-21 00:18 | -28.54769 | -57.53016 | 27984 ft | 490 kts | 185° |
| 2026-04-21 00:18 | -28.58177 | -57.53031 | 27982 ft | 489 kts | 185° |
| 2026-04-21 00:18 | -28.61554 | -57.53045 | 27992 ft | 489 kts | 185° |
| 2026-04-21 00:18 | -28.64983 | -57.53059 | 27989 ft | 490 kts | 185° |
| 2026-04-21 00:19 | -28.68401 | -57.53074 | 27983 ft | 492 kts | 185° |
| 2026-04-21 00:19 | -28.71834 | -57.53088 | 27988 ft | 493 kts | 185° |
| 2026-04-21 00:19 | -28.75259 | -57.53101 | 28003 ft | 492 kts | 185° |
| 2026-04-21 00:19 | -28.78675 | -57.53115 | 27987 ft | 491 kts | 185° |
| 2026-04-21 00:20 | -28.82094 | -57.53130 | 27986 ft | 490 kts | 185° |
| 2026-04-21 00:20 | -28.85509 | -57.53145 | 27989 ft | 491 kts | 185° |
| 2026-04-21 00:20 | -28.88892 | -57.53160 | 27991 ft | 493 kts | 185° |
| 2026-04-21 00:20 | -28.92321 | -57.53173 | 27993 ft | 494 kts | 185° |
| 2026-04-21 00:21 | -28.95763 | -57.53187 | 27989 ft | 493 kts | 185° |
| 2026-04-21 00:21 | -28.99189 | -57.53201 | 27989 ft | 491 kts | 185° |
| 2026-04-21 00:21 | -29.02608 | -57.53216 | 27992 ft | 490 kts | 185° |
| 2026-04-21 00:21 | -29.06007 | -57.53230 | 27990 ft | 490 kts | 185° |
| 2026-04-21 00:22 | -29.09430 | -57.53245 | 27990 ft | 491 kts | 185° |
| 2026-04-21 00:22 | -29.12850 | -57.53260 | 27992 ft | 492 kts | 185° |
| 2026-04-21 00:22 | -29.16291 | -57.53274 | 27993 ft | 493 kts | 185° |
| 2026-04-21 00:22 | -29.19713 | -57.53287 | 27992 ft | 492 kts | 185° |
| 2026-04-21 00:23 | -29.23130 | -57.53301 | 27992 ft | 490 kts | 185° |
| 2026-04-21 00:23 | -29.26542 | -57.53316 | 27990 ft | 489 kts | 186° |
| 2026-04-21 00:23 | -29.29937 | -57.53331 | 27987 ft | 490 kts | 186° |
| 2026-04-21 00:23 | -29.33320 | -57.53346 | 27987 ft | 491 kts | 185° |
| 2026-04-21 00:24 | -29.36757 | -57.53360 | 27988 ft | 492 kts | 186° |
| 2026-04-21 00:24 | -29.40185 | -57.53374 | 27988 ft | 491 kts | 186° |
| 2026-04-21 00:24 | -29.43598 | -57.53387 | 27987 ft | 489 kts | 186° |
| 2026-04-21 00:24 | -29.46999 | -57.53402 | 27987 ft | 487 kts | 186° |
| 2026-04-21 00:25 | -29.49243 | -57.53412 | 27990 ft | 488 kts | 186° |
| 2026-04-21 00:25 | -29.52641 | -57.53428 | 27989 ft | 489 kts | 186° |
| 2026-04-21 00:25 | -29.57152 | -57.53446 | 27991 ft | 489 kts | 185° |
| 2026-04-21 00:25 | -29.60551 | -57.53458 | 27991 ft | 487 kts | 186° |
| 2026-04-21 00:26 | -29.62839 | -57.53468 | 27988 ft | 486 kts | 186° |
| 2026-04-21 00:26 | -29.66228 | -57.53484 | 27989 ft | 486 kts | 186° |
| 2026-04-21 00:26 | -29.69609 | -57.53500 | 27991 ft | 487 kts | 185° |
| 2026-04-21 00:26 | -29.72998 | -57.53514 | 27990 ft | 488 kts | 185° |
| 2026-04-21 00:27 | -29.76398 | -57.53527 | 27988 ft | 488 kts | 185° |
| 2026-04-21 00:27 | -29.79797 | -57.53541 | 27994 ft | 487 kts | 185° |
| 2026-04-21 00:27 | -29.83146 | -57.53555 | 27991 ft | 486 kts | 185° |
| 2026-04-21 00:27 | -29.86520 | -57.53570 | 27992 ft | 485 kts | 185° |
| 2026-04-21 00:28 | -29.89904 | -57.53584 | 27992 ft | 485 kts | 186° |
| 2026-04-21 00:28 | -29.93292 | -57.53600 | 27994 ft | 487 kts | 185° |
| 2026-04-21 00:28 | -29.96688 | -57.53615 | 27992 ft | 488 kts | 185° |
| 2026-04-21 00:28 | -30.00087 | -57.53627 | 27993 ft | 487 kts | 185° |
| 2026-04-21 00:29 | -30.03482 | -57.53641 | 27995 ft | 485 kts | 185° |
| 2026-04-21 00:29 | -30.06847 | -57.53657 | 27993 ft | 484 kts | 185° |
| 2026-04-21 00:29 | -30.10213 | -57.53671 | 27999 ft | 484 kts | 185° |
| 2026-04-21 00:29 | -30.13588 | -57.53687 | 27996 ft | 486 kts | 185° |
| 2026-04-21 00:30 | -30.16970 | -57.53701 | 27994 ft | 487 kts | 185° |
| 2026-04-21 00:30 | -30.20320 | -57.53715 | 27993 ft | 487 kts | 185° |
| 2026-04-21 00:30 | -30.23706 | -57.53728 | 27994 ft | 485 kts | 185° |
| 2026-04-21 00:30 | -30.27073 | -57.53743 | 27997 ft | 483 kts | 185° |
| 2026-04-21 00:31 | -30.30440 | -57.53759 | 27997 ft | 484 kts | 185° |
| 2026-04-21 00:31 | -30.33818 | -57.53774 | 27996 ft | 486 kts | 185° |
| 2026-04-21 00:31 | -30.37207 | -57.53788 | 27997 ft | 487 kts | 185° |
| 2026-04-21 00:31 | -30.40593 | -57.53801 | 27997 ft | 485 kts | 185° |
| 2026-04-21 00:32 | -30.43966 | -57.53815 | 27992 ft | 484 kts | 185° |
| 2026-04-21 00:32 | -30.47332 | -57.53830 | 27999 ft | 483 kts | 185° |
| 2026-04-21 00:32 | -30.50708 | -57.53847 | 28001 ft | 484 kts | 185° |
| 2026-04-21 00:32 | -30.54082 | -57.53861 | 27998 ft | 485 kts | 185° |
| 2026-04-21 00:33 | -30.57460 | -57.53875 | 27997 ft | 486 kts | 185° |
| 2026-04-21 00:33 | -30.60801 | -57.53888 | 28000 ft | 485 kts | 185° |
| 2026-04-21 00:33 | -30.64179 | -57.53902 | 28002 ft | 483 kts | 185° |
| 2026-04-21 00:33 | -30.67538 | -57.53918 | 28000 ft | 482 kts | 185° |
| 2026-04-21 00:34 | -30.70894 | -57.53933 | 28003 ft | 483 kts | 185° |
| 2026-04-21 00:34 | -30.77640 | -57.53963 | 28000 ft | 486 kts | 185° |
| 2026-04-21 00:35 | -30.84381 | -57.53990 | 27999 ft | 483 kts | 185° |
| 2026-04-21 00:35 | -30.91106 | -57.54022 | 28001 ft | 484 kts | 185° |
| 2026-04-21 00:36 | -30.97870 | -57.54049 | 28008 ft | 486 kts | 185° |
| 2026-04-21 00:36 | -31.04619 | -57.54079 | 28005 ft | 484 kts | 185° |
| 2026-04-21 00:37 | -31.11354 | -57.54109 | 28007 ft | 484 kts | 185° |
| 2026-04-21 00:37 | -31.18115 | -57.54139 | 28008 ft | 487 kts | 185° |
| 2026-04-21 00:38 | -31.24854 | -57.54167 | 28001 ft | 487 kts | 185° |
| 2026-04-21 00:38 | -31.31627 | -57.54197 | 28010 ft | 486 kts | 185° |
| 2026-04-21 00:39 | -31.38400 | -57.54227 | 28004 ft | 487 kts | 186° |
| 2026-04-21 00:39 | -31.45180 | -57.54257 | 28011 ft | 487 kts | 186° |
| 2026-04-21 00:40 | -31.51963 | -57.54287 | 28009 ft | 488 kts | 186° |
| 2026-04-21 00:40 | -31.58741 | -57.54315 | 28012 ft | 486 kts | 186° |
| 2026-04-21 00:41 | -31.65485 | -57.54346 | 28011 ft | 484 kts | 186° |
| 2026-04-21 00:41 | -31.72229 | -57.54377 | 28016 ft | 486 kts | 186° |
| 2026-04-21 00:42 | -31.79013 | -57.54406 | 28015 ft | 487 kts | 186° |
| 2026-04-21 00:42 | -31.85767 | -57.54435 | 28018 ft | 484 kts | 186° |
| 2026-04-21 00:43 | -31.92466 | -57.54467 | 28015 ft | 485 kts | 186° |
| 2026-04-21 00:43 | -31.99243 | -57.54496 | 28020 ft | 486 kts | 185° |
| 2026-04-21 00:44 | -32.06016 | -57.54525 | 28020 ft | 484 kts | 186° |
| 2026-04-21 00:44 | -32.12742 | -57.54557 | 28024 ft | 485 kts | 185° |
| 2026-04-21 00:45 | -32.22903 | -57.54601 | 28026 ft | 486 kts | 185° |
| 2026-04-21 00:45 | -32.29645 | -57.54631 | 28027 ft | 483 kts | 185° |
| 2026-04-21 00:46 | -32.36340 | -57.54663 | 28030 ft | 486 kts | 185° |
| 2026-04-21 00:46 | -32.43131 | -57.54692 | 28037 ft | 487 kts | 185° |
| 2026-04-21 00:47 | -32.49900 | -57.54722 | 28037 ft | 485 kts | 185° |
| 2026-04-21 00:47 | -32.56619 | -57.54754 | 28039 ft | 485 kts | 185° |
| 2026-04-21 00:48 | -32.63391 | -57.54784 | 28038 ft | 487 kts | 185° |
| 2026-04-21 00:48 | -32.70189 | -57.54813 | 28041 ft | 486 kts | 185° |
| 2026-04-21 00:49 | -32.76940 | -57.54844 | 28041 ft | 484 kts | 185° |
| 2026-04-21 00:49 | -32.81401 | -57.54866 | 28043 ft | 485 kts | 185° |